sensor_id;sensor_type;location;lat;lon;timestamp;temperature;humidity
530;DHT22;251;48.704;9.210;2022-11-03T00:01:03;5.00;52.00
530;DHT22;251;48.704;9.210;2022-11-03T00:03:30;5.30;53.00
530;DHT22;251;48.704;9.210;2022-11-03T00:05:58;5.20;53.10
530;DHT22;251;48.704;9.210;2022-11-03T00:08:32;5.30;53.10
530;DHT22;251;48.704;9.210;2022-11-03T00:11:04;5.50;53.20
530;DHT22;251;48.704;9.210;2022-11-03T00:13:32;5.00;51.90
530;DHT22;251;48.704;9.210;2022-11-03T00:15:59;5.00;51.90
530;DHT22;251;48.704;9.210;2022-11-03T00:18:26;5.00;52.20
530;DHT22;251;48.704;9.210;2022-11-03T00:20:59;5.00;52.80
530;DHT22;251;48.704;9.210;2022-11-03T00:23:27;5.00;52.30
530;DHT22;251;48.704;9.210;2022-11-03T00:26:01;5.00;52.00
530;DHT22;251;48.704;9.210;2022-11-03T00:28:30;5.30;52.10
530;DHT22;251;48.704;9.210;2022-11-03T00:30:58;5.00;52.00
530;DHT22;251;48.704;9.210;2022-11-03T00:33:25;5.00;51.40
530;DHT22;251;48.704;9.210;2022-11-03T00:35:55;5.30;52.00
530;DHT22;251;48.704;9.210;2022-11-03T00:38:24;5.10;52.60
530;DHT22;251;48.704;9.210;2022-11-03T00:40:54;5.30;51.60
530;DHT22;251;48.704;9.210;2022-11-03T00:43:21;5.00;51.10
530;DHT22;251;48.704;9.210;2022-11-03T00:45:49;5.00;51.90
530;DHT22;251;48.704;9.210;2022-11-03T00:48:16;5.00;52.00
530;DHT22;251;48.704;9.210;2022-11-03T00:51:03;5.30;51.70
530;DHT22;251;48.704;9.210;2022-11-03T00:53:33;5.00;51.70
530;DHT22;251;48.704;9.210;2022-11-03T00:56:00;5.10;51.90
530;DHT22;251;48.704;9.210;2022-11-03T00:58:27;5.00;51.90
530;DHT22;251;48.704;9.210;2022-11-03T01:00:59;5.30;51.80
530;DHT22;251;48.704;9.210;2022-11-03T01:03:26;4.90;51.30
530;DHT22;251;48.704;9.210;2022-11-03T01:05:53;4.80;50.90
530;DHT22;251;48.704;9.210;2022-11-03T01:08:39;4.90;50.80
530;DHT22;251;48.704;9.210;2022-11-03T01:11:07;5.10;50.80
530;DHT22;251;48.704;9.210;2022-11-03T01:13:51;4.70;50.40
530;DHT22;251;48.704;9.210;2022-11-03T01:16:18;4.70;51.20
530;DHT22;251;48.704;9.210;2022-11-03T01:18:45;4.70;51.30
530;DHT22;251;48.704;9.210;2022-11-03T01:21:12;4.80;50.70
530;DHT22;251;48.704;9.210;2022-11-03T01:23:40;4.80;50.70
530;DHT22;251;48.704;9.210;2022-11-03T01:26:09;4.80;50.80
530;DHT22;251;48.704;9.210;2022-11-03T01:28:37;4.70;50.60
530;DHT22;251;48.704;9.210;2022-11-03T01:31:05;4.70;50.20
530;DHT22;251;48.704;9.210;2022-11-03T01:33:33;4.50;50.60
530;DHT22;251;48.704;9.210;2022-11-03T01:35:59;4.40;51.00
530;DHT22;251;48.704;9.210;2022-11-03T01:38:30;4.60;52.40
530;DHT22;251;48.704;9.210;2022-11-03T01:40:59;4.40;52.80
530;DHT22;251;48.704;9.210;2022-11-03T01:43:26;4.60;50.80
530;DHT22;251;48.704;9.210;2022-11-03T01:46:02;4.50;50.40
530;DHT22;251;48.704;9.210;2022-11-03T01:48:31;4.20;50.30
530;DHT22;251;48.704;9.210;2022-11-03T01:50:59;4.40;51.20
530;DHT22;251;48.704;9.210;2022-11-03T01:53:27;4.40;51.00
530;DHT22;251;48.704;9.210;2022-11-03T01:55:55;4.50;50.80
530;DHT22;251;48.704;9.210;2022-11-03T01:58:28;4.10;50.40
530;DHT22;251;48.704;9.210;2022-11-03T02:00:57;4.20;50.80
530;DHT22;251;48.704;9.210;2022-11-03T02:03:26;4.10;51.30
530;DHT22;251;48.704;9.210;2022-11-03T02:05:54;4.20;51.10
530;DHT22;251;48.704;9.210;2022-11-03T02:08:24;4.40;51.20
530;DHT22;251;48.704;9.210;2022-11-03T02:10:53;4.30;51.60
530;DHT22;251;48.704;9.210;2022-11-03T02:13:21;4.20;51.20
530;DHT22;251;48.704;9.210;2022-11-03T02:15:52;4.10;50.80
530;DHT22;251;48.704;9.210;2022-11-03T02:18:23;4.20;51.10
530;DHT22;251;48.704;9.210;2022-11-03T02:20:56;4.30;51.00
530;DHT22;251;48.704;9.210;2022-11-03T02:23:30;4.40;51.30
530;DHT22;251;48.704;9.210;2022-11-03T02:26:00;4.10;51.30
530;DHT22;251;48.704;9.210;2022-11-03T02:28:29;4.10;50.50
530;DHT22;251;48.704;9.210;2022-11-03T02:31:02;4.20;50.50
530;DHT22;251;48.704;9.210;2022-11-03T02:33:42;4.10;51.00
530;DHT22;251;48.704;9.210;2022-11-03T02:36:13;4.20;50.80
530;DHT22;251;48.704;9.210;2022-11-03T02:38:46;4.10;50.50
530;DHT22;251;48.704;9.210;2022-11-03T02:41:16;4.10;50.60
530;DHT22;251;48.704;9.210;2022-11-03T02:43:45;4.30;50.90
530;DHT22;251;48.704;9.210;2022-11-03T02:46:14;4.20;51.50
530;DHT22;251;48.704;9.210;2022-11-03T02:48:41;4.20;50.70
530;DHT22;251;48.704;9.210;2022-11-03T02:51:08;4.10;50.40
530;DHT22;251;48.704;9.210;2022-11-03T02:53:41;4.00;51.30
530;DHT22;251;48.704;9.210;2022-11-03T02:56:12;4.20;51.50
530;DHT22;251;48.704;9.210;2022-11-03T02:58:45;4.10;52.60
530;DHT22;251;48.704;9.210;2022-11-03T03:01:17;4.10;51.30
530;DHT22;251;48.704;9.210;2022-11-03T03:03:47;4.30;50.90
530;DHT22;251;48.704;9.210;2022-11-03T03:06:18;3.90;50.40
530;DHT22;251;48.704;9.210;2022-11-03T03:08:50;4.00;51.70
530;DHT22;251;48.704;9.210;2022-11-03T03:11:19;3.80;50.70
530;DHT22;251;48.704;9.210;2022-11-03T03:14:05;4.20;50.20
530;DHT22;251;48.704;9.210;2022-11-03T03:16:36;4.20;51.00
530;DHT22;251;48.704;9.210;2022-11-03T03:19:19;3.90;50.50
530;DHT22;251;48.704;9.210;2022-11-03T03:21:49;3.80;51.00
530;DHT22;251;48.704;9.210;2022-11-03T03:24:22;3.90;49.80
530;DHT22;251;48.704;9.210;2022-11-03T03:26:52;3.80;50.40
530;DHT22;251;48.704;9.210;2022-11-03T03:29:28;4.00;50.20
530;DHT22;251;48.704;9.210;2022-11-03T03:31:58;4.00;50.80
530;DHT22;251;48.704;9.210;2022-11-03T03:34:28;3.80;50.90
530;DHT22;251;48.704;9.210;2022-11-03T03:36:58;3.80;51.00
530;DHT22;251;48.704;9.210;2022-11-03T03:39:32;3.80;52.10
530;DHT22;251;48.704;9.210;2022-11-03T03:42:01;3.60;51.90
530;DHT22;251;48.704;9.210;2022-11-03T03:44:30;3.70;51.30
530;DHT22;251;48.704;9.210;2022-11-03T03:46:59;3.70;51.70
530;DHT22;251;48.704;9.210;2022-11-03T03:49:28;3.50;51.70
530;DHT22;251;48.704;9.210;2022-11-03T03:51:55;3.50;52.60
530;DHT22;251;48.704;9.210;2022-11-03T03:54:22;3.70;52.40
530;DHT22;251;48.704;9.210;2022-11-03T03:56:55;3.60;52.70
530;DHT22;251;48.704;9.210;2022-11-03T03:59:22;3.60;53.60
530;DHT22;251;48.704;9.210;2022-11-03T04:01:50;3.70;53.40
530;DHT22;251;48.704;9.210;2022-11-03T04:04:17;3.60;53.80
530;DHT22;251;48.704;9.210;2022-11-03T04:06:44;3.70;54.80
530;DHT22;251;48.704;9.210;2022-11-03T04:09:11;3.70;55.60
530;DHT22;251;48.704;9.210;2022-11-03T04:11:38;3.70;55.40
530;DHT22;251;48.704;9.210;2022-11-03T04:14:22;3.60;55.80
530;DHT22;251;48.704;9.210;2022-11-03T04:17:17;3.70;57.10
530;DHT22;251;48.704;9.210;2022-11-03T04:20:01;3.90;58.70
530;DHT22;251;48.704;9.210;2022-11-03T04:22:48;4.00;59.30
530;DHT22;251;48.704;9.210;2022-11-03T04:25:15;4.00;61.10
530;DHT22;251;48.704;9.210;2022-11-03T04:27:41;3.60;57.60
530;DHT22;251;48.704;9.210;2022-11-03T04:30:16;3.60;58.00
530;DHT22;251;48.704;9.210;2022-11-03T04:32:46;3.50;58.60
530;DHT22;251;48.704;9.210;2022-11-03T04:35:15;3.50;59.50
530;DHT22;251;48.704;9.210;2022-11-03T04:37:42;3.50;59.90
530;DHT22;251;48.704;9.210;2022-11-03T04:40:13;3.90;60.70
530;DHT22;251;48.704;9.210;2022-11-03T04:42:41;3.80;61.00
530;DHT22;251;48.704;9.210;2022-11-03T04:45:16;3.90;61.20
530;DHT22;251;48.704;9.210;2022-11-03T04:47:46;3.50;60.40
530;DHT22;251;48.704;9.210;2022-11-03T04:50:16;3.90;60.30
530;DHT22;251;48.704;9.210;2022-11-03T04:52:43;3.70;60.20
530;DHT22;251;48.704;9.210;2022-11-03T04:55:13;3.90;59.00
530;DHT22;251;48.704;9.210;2022-11-03T04:57:41;3.70;58.80
530;DHT22;251;48.704;9.210;2022-11-03T05:00:13;3.70;59.50
530;DHT22;251;48.704;9.210;2022-11-03T05:02:42;3.70;61.10
530;DHT22;251;48.704;9.210;2022-11-03T05:05:16;3.60;59.70
530;DHT22;251;48.704;9.210;2022-11-03T05:07:45;3.60;59.10
530;DHT22;251;48.704;9.210;2022-11-03T05:10:15;3.60;59.10
530;DHT22;251;48.704;9.210;2022-11-03T05:12:42;3.50;62.00
530;DHT22;251;48.704;9.210;2022-11-03T05:15:25;3.60;64.80
530;DHT22;251;48.704;9.210;2022-11-03T05:17:53;3.50;65.50
530;DHT22;251;48.704;9.210;2022-11-03T05:20:29;3.60;67.30
530;DHT22;251;48.704;9.210;2022-11-03T05:22:57;3.70;68.60
530;DHT22;251;48.704;9.210;2022-11-03T05:25:36;3.70;68.00
530;DHT22;251;48.704;9.210;2022-11-03T05:28:15;3.50;65.80
530;DHT22;251;48.704;9.210;2022-11-03T05:30:44;3.70;64.90
530;DHT22;251;48.704;9.210;2022-11-03T05:33:21;3.50;65.90
530;DHT22;251;48.704;9.210;2022-11-03T05:35:49;3.60;65.90
530;DHT22;251;48.704;9.210;2022-11-03T05:38:18;3.70;64.90
530;DHT22;251;48.704;9.210;2022-11-03T05:40:49;3.70;62.70
530;DHT22;251;48.704;9.210;2022-11-03T05:43:17;3.60;60.60
530;DHT22;251;48.704;9.210;2022-11-03T05:45:44;3.40;59.90
530;DHT22;251;48.704;9.210;2022-11-03T05:48:15;3.20;61.00
530;DHT22;251;48.704;9.210;2022-11-03T05:50:43;3.30;61.50
530;DHT22;251;48.704;9.210;2022-11-03T05:53:27;3.40;61.90
530;DHT22;251;48.704;9.210;2022-11-03T05:55:55;3.40;62.20
530;DHT22;251;48.704;9.210;2022-11-03T05:58:24;3.20;61.90
530;DHT22;251;48.704;9.210;2022-11-03T06:00:53;3.30;61.60
530;DHT22;251;48.704;9.210;2022-11-03T06:03:24;3.30;61.70
530;DHT22;251;48.704;9.210;2022-11-03T06:05:52;3.50;61.90
530;DHT22;251;48.704;9.210;2022-11-03T06:08:24;3.30;60.30
530;DHT22;251;48.704;9.210;2022-11-03T06:10:53;3.10;60.10
530;DHT22;251;48.704;9.210;2022-11-03T06:13:25;3.40;61.70
530;DHT22;251;48.704;9.210;2022-11-03T06:15:56;3.30;62.00
530;DHT22;251;48.704;9.210;2022-11-03T06:18:25;3.40;62.50
530;DHT22;251;48.704;9.210;2022-11-03T06:20:57;3.30;63.00
530;DHT22;251;48.704;9.210;2022-11-03T06:23:26;3.40;63.10
530;DHT22;251;48.704;9.210;2022-11-03T06:25:55;3.40;62.30
530;DHT22;251;48.704;9.210;2022-11-03T06:28:24;3.30;61.10
530;DHT22;251;48.704;9.210;2022-11-03T06:30:52;3.20;61.40
530;DHT22;251;48.704;9.210;2022-11-03T06:33:23;3.40;60.80
530;DHT22;251;48.704;9.210;2022-11-03T06:35:54;3.40;60.30
530;DHT22;251;48.704;9.210;2022-11-03T06:38:27;3.30;60.90
530;DHT22;251;48.704;9.210;2022-11-03T06:40:56;3.40;62.30
530;DHT22;251;48.704;9.210;2022-11-03T06:43:25;3.30;61.30
530;DHT22;251;48.704;9.210;2022-11-03T06:45:56;3.30;61.40
530;DHT22;251;48.704;9.210;2022-11-03T06:48:25;3.20;61.40
530;DHT22;251;48.704;9.210;2022-11-03T06:50:54;3.30;61.70
530;DHT22;251;48.704;9.210;2022-11-03T06:53:24;3.40;62.70
530;DHT22;251;48.704;9.210;2022-11-03T06:55:53;3.40;63.50
530;DHT22;251;48.704;9.210;2022-11-03T06:58:33;3.40;63.80
530;DHT22;251;48.704;9.210;2022-11-03T07:01:03;3.40;64.90
530;DHT22;251;48.704;9.210;2022-11-03T07:03:35;3.40;66.20
530;DHT22;251;48.704;9.210;2022-11-03T07:06:14;3.60;67.00
530;DHT22;251;48.704;9.210;2022-11-03T07:08:45;3.50;67.70
530;DHT22;251;48.704;9.210;2022-11-03T07:11:17;3.60;68.90
530;DHT22;251;48.704;9.210;2022-11-03T07:13:45;3.60;71.90
530;DHT22;251;48.704;9.210;2022-11-03T07:16:16;3.60;73.00
530;DHT22;251;48.704;9.210;2022-11-03T07:18:45;3.40;74.60
530;DHT22;251;48.704;9.210;2022-11-03T07:21:24;3.90;76.10
530;DHT22;251;48.704;9.210;2022-11-03T07:23:53;3.80;78.00
530;DHT22;251;48.704;9.210;2022-11-03T07:26:22;3.80;79.80
530;DHT22;251;48.704;9.210;2022-11-03T07:28:50;3.90;81.20
530;DHT22;251;48.704;9.210;2022-11-03T07:31:21;3.90;81.90
530;DHT22;251;48.704;9.210;2022-11-03T07:33:52;4.20;82.80
530;DHT22;251;48.704;9.210;2022-11-03T07:36:21;4.10;82.00
530;DHT22;251;48.704;9.210;2022-11-03T07:38:51;4.10;82.00
530;DHT22;251;48.704;9.210;2022-11-03T07:41:21;4.10;81.90
530;DHT22;251;48.704;9.210;2022-11-03T07:43:55;4.60;82.40
530;DHT22;251;48.704;9.210;2022-11-03T07:46:24;4.40;82.60
530;DHT22;251;48.704;9.210;2022-11-03T07:48:53;4.50;84.70
530;DHT22;251;48.704;9.210;2022-11-03T07:51:22;4.40;85.40
530;DHT22;251;48.704;9.210;2022-11-03T07:53:52;4.50;86.20
530;DHT22;251;48.704;9.210;2022-11-03T07:56:20;4.70;87.80
530;DHT22;251;48.704;9.210;2022-11-03T07:58:50;4.90;89.20
530;DHT22;251;48.704;9.210;2022-11-03T08:01:29;4.70;91.10
530;DHT22;251;48.704;9.210;2022-11-03T08:04:00;5.20;92.80
530;DHT22;251;48.704;9.210;2022-11-03T08:06:29;4.80;93.80
530;DHT22;251;48.704;9.210;2022-11-03T08:08:56;5.20;95.10
530;DHT22;251;48.704;9.210;2022-11-03T08:11:23;5.30;95.50
530;DHT22;251;48.704;9.210;2022-11-03T08:13:50;5.20;96.00
530;DHT22;251;48.704;9.210;2022-11-03T08:16:18;5.60;96.70
530;DHT22;251;48.704;9.210;2022-11-03T08:18:46;5.60;97.80
530;DHT22;251;48.704;9.210;2022-11-03T08:21:13;5.60;98.90
530;DHT22;251;48.704;9.210;2022-11-03T08:23:42;5.40;98.70
530;DHT22;251;48.704;9.210;2022-11-03T08:26:09;5.90;99.40
530;DHT22;251;48.704;9.210;2022-11-03T08:28:36;5.50;99.20
530;DHT22;251;48.704;9.210;2022-11-03T08:31:03;5.90;99.50
530;DHT22;251;48.704;9.210;2022-11-03T08:33:30;5.90;99.90
530;DHT22;251;48.704;9.210;2022-11-03T08:35:59;5.80;99.90
530;DHT22;251;48.704;9.210;2022-11-03T08:38:26;6.10;99.90
530;DHT22;251;48.704;9.210;2022-11-03T08:40:53;6.10;99.90
530;DHT22;251;48.704;9.210;2022-11-03T08:43:21;6.30;99.90
530;DHT22;251;48.704;9.210;2022-11-03T08:45:47;6.20;99.90
530;DHT22;251;48.704;9.210;2022-11-03T08:48:18;6.10;99.90
530;DHT22;251;48.704;9.210;2022-11-03T08:50:46;6.30;99.90
530;DHT22;251;48.704;9.210;2022-11-03T08:53:14;6.30;99.90
530;DHT22;251;48.704;9.210;2022-11-03T08:55:41;6.60;99.90
530;DHT22;251;48.704;9.210;2022-11-03T08:58:08;6.50;99.90
530;DHT22;251;48.704;9.210;2022-11-03T09:00:35;6.40;99.90
530;DHT22;251;48.704;9.210;2022-11-03T09:03:02;6.60;99.90
530;DHT22;251;48.704;9.210;2022-11-03T09:05:29;6.90;99.90
530;DHT22;251;48.704;9.210;2022-11-03T09:07:56;6.90;99.90
530;DHT22;251;48.704;9.210;2022-11-03T09:10:26;6.80;99.90
530;DHT22;251;48.704;9.210;2022-11-03T09:12:52;6.80;99.90
530;DHT22;251;48.704;9.210;2022-11-03T09:15:19;6.80;99.90
530;DHT22;251;48.704;9.210;2022-11-03T09:17:46;7.20;99.90
530;DHT22;251;48.704;9.210;2022-11-03T09:20:13;7.10;99.90
530;DHT22;251;48.704;9.210;2022-11-03T09:22:40;7.60;99.90
530;DHT22;251;48.704;9.210;2022-11-03T09:25:08;7.60;99.90
530;DHT22;251;48.704;9.210;2022-11-03T09:27:36;7.70;99.90
530;DHT22;251;48.704;9.210;2022-11-03T09:30:04;7.50;99.90
530;DHT22;251;48.704;9.210;2022-11-03T09:32:31;7.90;99.90
530;DHT22;251;48.704;9.210;2022-11-03T09:34:57;8.10;99.90
530;DHT22;251;48.704;9.210;2022-11-03T09:37:24;7.90;99.90
530;DHT22;251;48.704;9.210;2022-11-03T09:39:52;8.10;99.90
530;DHT22;251;48.704;9.210;2022-11-03T09:42:19;8.40;99.90
530;DHT22;251;48.704;9.210;2022-11-03T09:44:47;8.40;95.70
530;DHT22;251;48.704;9.210;2022-11-03T09:47:20;8.40;93.10
530;DHT22;251;48.704;9.210;2022-11-03T09:49:49;8.60;91.90
530;DHT22;251;48.704;9.210;2022-11-03T09:52:20;8.80;84.20
530;DHT22;251;48.704;9.210;2022-11-03T09:54:48;8.80;80.50
530;DHT22;251;48.704;9.210;2022-11-03T09:57:15;8.80;74.20
530;DHT22;251;48.704;9.210;2022-11-03T09:59:44;9.30;72.00
530;DHT22;251;48.704;9.210;2022-11-03T10:02:18;9.00;70.60
530;DHT22;251;48.704;9.210;2022-11-03T10:04:46;9.20;71.70
530;DHT22;251;48.704;9.210;2022-11-03T10:07:13;9.30;71.40
530;DHT22;251;48.704;9.210;2022-11-03T10:09:43;9.10;68.90
530;DHT22;251;48.704;9.210;2022-11-03T10:12:12;9.50;65.20
530;DHT22;251;48.704;9.210;2022-11-03T10:14:39;9.30;65.70
530;DHT22;251;48.704;9.210;2022-11-03T10:17:12;9.50;65.20
530;DHT22;251;48.704;9.210;2022-11-03T10:19:41;9.60;65.60
530;DHT22;251;48.704;9.210;2022-11-03T10:22:09;9.60;66.20
530;DHT22;251;48.704;9.210;2022-11-03T10:24:36;9.50;67.20
530;DHT22;251;48.704;9.210;2022-11-03T10:27:02;9.50;65.00
530;DHT22;251;48.704;9.210;2022-11-03T10:29:29;9.60;65.70
530;DHT22;251;48.704;9.210;2022-11-03T10:31:58;9.60;67.10
530;DHT22;251;48.704;9.210;2022-11-03T10:34:31;10.00;68.60
530;DHT22;251;48.704;9.210;2022-11-03T10:37:13;9.90;70.60
530;DHT22;251;48.704;9.210;2022-11-03T10:39:42;9.80;70.40
530;DHT22;251;48.704;9.210;2022-11-03T10:42:19;10.00;68.90
530;DHT22;251;48.704;9.210;2022-11-03T10:44:46;10.10;69.00
530;DHT22;251;48.704;9.210;2022-11-03T10:47:25;9.70;69.90
530;DHT22;251;48.704;9.210;2022-11-03T10:49:57;9.80;69.50
530;DHT22;251;48.704;9.210;2022-11-03T10:52:27;9.80;69.80
530;DHT22;251;48.704;9.210;2022-11-03T10:54:57;9.90;69.40
530;DHT22;251;48.704;9.210;2022-11-03T10:57:25;10.00;67.40
530;DHT22;251;48.704;9.210;2022-11-03T10:59:53;10.10;67.50
530;DHT22;251;48.704;9.210;2022-11-03T11:02:22;10.10;68.10
530;DHT22;251;48.704;9.210;2022-11-03T11:04:54;10.40;70.00
530;DHT22;251;48.704;9.210;2022-11-03T11:07:28;10.10;70.10
530;DHT22;251;48.704;9.210;2022-11-03T11:09:56;10.00;68.00
530;DHT22;251;48.704;9.210;2022-11-03T11:12:30;10.20;68.80
530;DHT22;251;48.704;9.210;2022-11-03T11:14:58;10.20;69.00
530;DHT22;251;48.704;9.210;2022-11-03T11:17:48;10.40;69.80
530;DHT22;251;48.704;9.210;2022-11-03T11:20:30;10.20;67.60
530;DHT22;251;48.704;9.210;2022-11-03T11:26:32;10.30;67.70
530;DHT22;251;48.704;9.210;2022-11-03T11:41:00;10.70;69.20
530;DHT22;251;48.704;9.210;2022-11-03T11:43:28;10.90;68.10
530;DHT22;251;48.704;9.210;2022-11-03T11:46:32;10.60;67.10
530;DHT22;251;48.704;9.210;2022-11-03T11:49:15;10.80;66.30
530;DHT22;251;48.704;9.210;2022-11-03T11:51:42;10.60;65.00
530;DHT22;251;48.704;9.210;2022-11-03T11:54:14;10.90;65.40
530;DHT22;251;48.704;9.210;2022-11-03T11:56:43;10.60;63.70
530;DHT22;251;48.704;9.210;2022-11-03T11:59:22;10.80;63.90
530;DHT22;251;48.704;9.210;2022-11-03T12:01:51;10.90;63.70
530;DHT22;251;48.704;9.210;2022-11-03T12:04:21;10.60;63.40
530;DHT22;251;48.704;9.210;2022-11-03T12:06:49;10.80;63.10
530;DHT22;251;48.704;9.210;2022-11-03T12:09:17;11.00;63.90
530;DHT22;251;48.704;9.210;2022-11-03T12:11:46;10.60;63.00
530;DHT22;251;48.704;9.210;2022-11-03T12:14:25;10.80;63.80
530;DHT22;251;48.704;9.210;2022-11-03T12:16:58;10.90;64.00
530;DHT22;251;48.704;9.210;2022-11-03T12:19:46;10.80;63.50
530;DHT22;251;48.704;9.210;2022-11-03T12:22:38;10.80;63.40
530;DHT22;251;48.704;9.210;2022-11-03T12:25:34;10.80;62.50
530;DHT22;251;48.704;9.210;2022-11-03T12:28:01;11.00;62.60
530;DHT22;251;48.704;9.210;2022-11-03T12:30:28;11.00;61.50
530;DHT22;251;48.704;9.210;2022-11-03T12:32:55;11.20;61.10
530;DHT22;251;48.704;9.210;2022-11-03T12:35:22;10.60;61.30
530;DHT22;251;48.704;9.210;2022-11-03T12:37:49;11.20;61.60
530;DHT22;251;48.704;9.210;2022-11-03T12:40:16;11.00;62.10
530;DHT22;251;48.704;9.210;2022-11-03T12:42:44;11.20;62.60
530;DHT22;251;48.704;9.210;2022-11-03T12:45:11;10.90;62.70
530;DHT22;251;48.704;9.210;2022-11-03T12:47:39;10.90;62.40
530;DHT22;251;48.704;9.210;2022-11-03T12:50:06;11.00;61.70
530;DHT22;251;48.704;9.210;2022-11-03T12:52:33;10.90;61.00
530;DHT22;251;48.704;9.210;2022-11-03T12:54:59;11.00;60.20
530;DHT22;251;48.704;9.210;2022-11-03T12:57:26;11.10;60.20
530;DHT22;251;48.704;9.210;2022-11-03T12:59:54;11.00;60.60
530;DHT22;251;48.704;9.210;2022-11-03T13:02:21;11.00;59.80
530;DHT22;251;48.704;9.210;2022-11-03T13:04:59;11.00;59.50
530;DHT22;251;48.704;9.210;2022-11-03T13:07:29;11.20;59.70
530;DHT22;251;48.704;9.210;2022-11-03T13:09:56;10.90;59.10
530;DHT22;251;48.704;9.210;2022-11-03T13:12:23;10.60;58.40
530;DHT22;251;48.704;9.210;2022-11-03T13:15:14;11.10;58.80
530;DHT22;251;48.704;9.210;2022-11-03T13:17:53;10.80;59.00
530;DHT22;251;48.704;9.210;2022-11-03T13:20:20;11.20;59.40
530;DHT22;251;48.704;9.210;2022-11-03T13:22:47;10.90;59.40
530;DHT22;251;48.704;9.210;2022-11-03T13:25:14;10.90;59.70
530;DHT22;251;48.704;9.210;2022-11-03T13:27:41;11.10;59.40
530;DHT22;251;48.704;9.210;2022-11-03T13:30:10;10.90;58.80
530;DHT22;251;48.704;9.210;2022-11-03T13:32:37;10.90;58.90
530;DHT22;251;48.704;9.210;2022-11-03T13:35:04;10.90;58.60
530;DHT22;251;48.704;9.210;2022-11-03T13:37:31;11.10;58.30
530;DHT22;251;48.704;9.210;2022-11-03T13:39:58;10.90;58.60
530;DHT22;251;48.704;9.210;2022-11-03T13:42:25;10.90;58.00
530;DHT22;251;48.704;9.210;2022-11-03T13:44:51;10.90;58.70
530;DHT22;251;48.704;9.210;2022-11-03T13:47:20;10.80;58.80
530;DHT22;251;48.704;9.210;2022-11-03T13:49:46;11.20;59.10
530;DHT22;251;48.704;9.210;2022-11-03T13:52:17;10.90;58.20
530;DHT22;251;48.704;9.210;2022-11-03T13:54:44;11.10;57.80
530;DHT22;251;48.704;9.210;2022-11-03T13:57:10;10.90;57.90
530;DHT22;251;48.704;9.210;2022-11-03T13:59:37;10.90;57.90
530;DHT22;251;48.704;9.210;2022-11-03T14:02:05;11.30;58.80
530;DHT22;251;48.704;9.210;2022-11-03T14:04:34;11.00;59.00
530;DHT22;251;48.704;9.210;2022-11-03T14:07:01;10.90;58.80
530;DHT22;251;48.704;9.210;2022-11-03T14:09:28;10.90;60.00
530;DHT22;251;48.704;9.210;2022-11-03T14:11:55;11.20;59.40
530;DHT22;251;48.704;9.210;2022-11-03T14:14:40;11.20;59.70
530;DHT22;251;48.704;9.210;2022-11-03T14:17:07;11.30;60.50
530;DHT22;251;48.704;9.210;2022-11-03T14:19:35;11.10;59.20
530;DHT22;251;48.704;9.210;2022-11-03T14:22:02;10.80;59.10
530;DHT22;251;48.704;9.210;2022-11-03T14:24:29;10.90;58.30
530;DHT22;251;48.704;9.210;2022-11-03T14:26:55;10.90;58.70
530;DHT22;251;48.704;9.210;2022-11-03T14:29:22;11.20;58.50
530;DHT22;251;48.704;9.210;2022-11-03T14:31:49;11.20;58.40
530;DHT22;251;48.704;9.210;2022-11-03T14:34:16;10.90;58.00
530;DHT22;251;48.704;9.210;2022-11-03T14:36:44;11.00;58.20
530;DHT22;251;48.704;9.210;2022-11-03T14:39:11;11.00;57.60
530;DHT22;251;48.704;9.210;2022-11-03T14:41:38;10.90;58.20
530;DHT22;251;48.704;9.210;2022-11-03T14:44:23;11.00;60.10
530;DHT22;251;48.704;9.210;2022-11-03T14:46:49;10.80;61.10
530;DHT22;251;48.704;9.210;2022-11-03T14:49:16;10.90;61.30
530;DHT22;251;48.704;9.210;2022-11-03T14:51:45;11.10;61.40
530;DHT22;251;48.704;9.210;2022-11-03T14:54:12;10.90;61.20
530;DHT22;251;48.704;9.210;2022-11-03T14:56:39;10.90;61.80
530;DHT22;251;48.704;9.210;2022-11-03T14:59:05;10.90;62.50
530;DHT22;251;48.704;9.210;2022-11-03T15:01:32;10.90;62.50
530;DHT22;251;48.704;9.210;2022-11-03T15:04:00;10.80;62.50
530;DHT22;251;48.704;9.210;2022-11-03T15:06:27;10.70;62.30
530;DHT22;251;48.704;9.210;2022-11-03T15:08:55;10.80;62.60
530;DHT22;251;48.704;9.210;2022-11-03T15:11:22;10.50;62.20
530;DHT22;251;48.704;9.210;2022-11-03T15:13:49;10.70;62.10
530;DHT22;251;48.704;9.210;2022-11-03T15:16:16;10.80;61.50
530;DHT22;251;48.704;9.210;2022-11-03T15:18:43;10.60;61.80
530;DHT22;251;48.704;9.210;2022-11-03T15:21:10;10.60;62.10
530;DHT22;251;48.704;9.210;2022-11-03T15:23:36;10.80;63.50
530;DHT22;251;48.704;9.210;2022-11-03T15:26:07;10.50;63.00
530;DHT22;251;48.704;9.210;2022-11-03T15:28:34;10.90;64.20
530;DHT22;251;48.704;9.210;2022-11-03T15:31:01;10.60;64.50
530;DHT22;251;48.704;9.210;2022-11-03T15:33:28;10.50;64.10
530;DHT22;251;48.704;9.210;2022-11-03T15:35:55;10.50;64.90
530;DHT22;251;48.704;9.210;2022-11-03T15:38:22;10.60;65.00
530;DHT22;251;48.704;9.210;2022-11-03T15:40:49;10.50;65.60
530;DHT22;251;48.704;9.210;2022-11-03T15:43:17;10.60;65.70
530;DHT22;251;48.704;9.210;2022-11-03T15:45:46;10.60;65.80
530;DHT22;251;48.704;9.210;2022-11-03T15:48:13;10.80;65.60
530;DHT22;251;48.704;9.210;2022-11-03T15:50:39;10.60;66.40
530;DHT22;251;48.704;9.210;2022-11-03T15:53:06;10.50;66.10
530;DHT22;251;48.704;9.210;2022-11-03T15:55:33;10.50;66.10
530;DHT22;251;48.704;9.210;2022-11-03T15:58:00;10.20;66.90
530;DHT22;251;48.704;9.210;2022-11-03T16:00:28;10.50;66.80
530;DHT22;251;48.704;9.210;2022-11-03T16:02:55;10.40;66.40
530;DHT22;251;48.704;9.210;2022-11-03T16:05:22;10.60;67.30
530;DHT22;251;48.704;9.210;2022-11-03T16:07:49;10.30;66.70
530;DHT22;251;48.704;9.210;2022-11-03T16:10:16;10.60;67.10
530;DHT22;251;48.704;9.210;2022-11-03T16:12:43;10.20;66.40
530;DHT22;251;48.704;9.210;2022-11-03T16:15:10;10.20;66.50
530;DHT22;251;48.704;9.210;2022-11-03T16:17:38;10.30;66.70
530;DHT22;251;48.704;9.210;2022-11-03T16:20:06;10.30;67.40
530;DHT22;251;48.704;9.210;2022-11-03T16:22:34;10.40;67.10
530;DHT22;251;48.704;9.210;2022-11-03T16:25:01;10.20;66.90
530;DHT22;251;48.704;9.210;2022-11-03T16:27:28;10.40;67.20
530;DHT22;251;48.704;9.210;2022-11-03T16:29:55;10.40;67.30
530;DHT22;251;48.704;9.210;2022-11-03T16:32:22;10.30;67.00
530;DHT22;251;48.704;9.210;2022-11-03T16:34:50;10.20;67.30
530;DHT22;251;48.704;9.210;2022-11-03T16:37:17;10.30;67.20
530;DHT22;251;48.704;9.210;2022-11-03T16:39:44;10.30;67.70
530;DHT22;251;48.704;9.210;2022-11-03T16:42:11;10.10;68.20
530;DHT22;251;48.704;9.210;2022-11-03T16:44:38;10.20;68.30
530;DHT22;251;48.704;9.210;2022-11-03T16:47:04;10.00;68.50
530;DHT22;251;48.704;9.210;2022-11-03T16:49:31;10.20;68.20
530;DHT22;251;48.704;9.210;2022-11-03T16:51:59;10.30;68.10
530;DHT22;251;48.704;9.210;2022-11-03T16:54:26;10.20;68.30
530;DHT22;251;48.704;9.210;2022-11-03T16:56:53;10.30;69.10
530;DHT22;251;48.704;9.210;2022-11-03T16:59:20;10.00;69.20
530;DHT22;251;48.704;9.210;2022-11-03T17:01:48;10.00;69.20
530;DHT22;251;48.704;9.210;2022-11-03T17:04:16;10.20;69.70
530;DHT22;251;48.704;9.210;2022-11-03T17:06:42;9.90;70.60
530;DHT22;251;48.704;9.210;2022-11-03T17:09:11;10.00;71.10
530;DHT22;251;48.704;9.210;2022-11-03T17:11:38;10.00;70.70
530;DHT22;251;48.704;9.210;2022-11-03T17:14:07;9.90;71.00
530;DHT22;251;48.704;9.210;2022-11-03T17:16:38;9.90;70.30
530;DHT22;251;48.704;9.210;2022-11-03T17:19:07;9.70;71.40